Time;durP1;ratioP1;P1;durP2;ratioP2;P2;SDS_P1;SDS_P2;PMS_P1;PMS_P2;Temp;Humidity;BMP_temperature;BMP_pressure;BME280_temperature;BME280_humidity;BME280_pressure;Samples;Min_cycle;Max_cycle;Signal;HPM_P1;HPM_P2
2023/10/21 00:00:56;;;;;;;4.63;3.83;;;;;;;12.62;81.15;94249.44;5033128;28;20195;-79
2023/10/21 00:03:24;;;;;;;4.80;4.30;;;;;;;12.63;81.48;94266.69;5032037;28;20080;-79
2023/10/21 00:05:52;;;;;;;8.18;4.53;;;;;;;12.63;81.81;94255.44;5016037;28;20116;-78
2023/10/21 00:08:19;;;;;;;4.43;3.92;;;;;;;12.62;81.32;94267.75;5016047;28;20116;-78
2023/10/21 00:10:47;;;;;;;4.90;3.97;;;;;;;12.62;81.11;94270.34;5015886;28;20137;-78
2023/10/21 00:13:16;;;;;;;5.38;3.47;;;;;;;12.63;81.64;94287.59;5016056;28;20136;-78
2023/10/21 00:15:43;;;;;;;3.75;3.25;;;;;;;12.64;81.35;94278.75;5015654;28;20053;-78
2023/10/21 00:18:12;;;;;;;3.25;2.95;;;;;;;12.64;80.57;94288.41;5015369;28;20058;-78
2023/10/21 00:20:39;;;;;;;5.47;3.03;;;;;;;12.63;80.13;94292.84;5016055;28;20049;-78
2023/10/21 00:23:07;;;;;;;3.83;3.08;;;;;;;12.66;80.03;94307.25;5015440;28;20509;-78
2023/10/21 00:25:34;;;;;;;4.28;3.55;;;;;;;12.67;79.57;94309.63;5015328;28;20049;-78
2023/10/21 00:28:03;;;;;;;5.68;3.60;;;;;;;12.71;79.81;94302.06;5015494;28;20046;-78
2023/10/21 00:30:32;;;;;;;5.22;3.03;;;;;;;12.73;79.94;94308.63;5015436;28;20140;-78
2023/10/21 00:32:59;;;;;;;3.05;2.25;;;;;;;12.76;79.71;94318.56;5015432;28;20132;-78
2023/10/21 00:35:27;;;;;;;4.03;2.75;;;;;;;12.79;79.57;94317.31;5015215;28;20414;-79
2023/10/21 00:37:54;;;;;;;4.10;3.47;;;;;;;12.82;80.33;94321.25;5015239;28;20128;-78
2023/10/21 00:40:22;;;;;;;5.75;3.33;;;;;;;12.83;80.15;94322.81;5015183;28;20149;-78
2023/10/21 00:42:50;;;;;;;3.55;2.80;;;;;;;12.85;79.89;94320.72;5015098;28;20096;-78
2023/10/21 00:45:17;;;;;;;3.08;2.85;;;;;;;12.85;80.33;94325.97;5014698;28;20056;-79
2023/10/21 00:47:46;;;;;;;6.68;3.00;;;;;;;12.85;79.77;94337.19;5015290;28;20046;-78
2023/10/21 00:50:14;;;;;;;5.25;2.42;;;;;;;12.86;79.82;94332.78;5014297;28;20425;-78
2023/10/21 00:52:47;;;;;;;2.92;2.60;;;;;;;12.85;79.54;94344.28;5015170;28;20073;-79
2023/10/21 00:59:11;;;;;;;3.60;2.70;;;;;;;12.85;78.73;94354.72;5114345;23;20069;-77
2023/10/21 01:01:39;;;;;;;2.35;2.15;;;;;;;12.84;78.33;94356.56;5034476;28;20053;-77
2023/10/21 01:04:10;;;;;;;3.78;2.20;;;;;;;12.86;78.36;94353.72;5036795;28;20508;-77
2023/10/21 01:06:38;;;;;;;2.78;2.53;;;;;;;12.87;78.25;94360.50;5034369;28;20061;-77
2023/10/21 01:09:06;;;;;;;3.30;2.28;;;;;;;12.87;78.82;94363.13;5034325;28;20045;-77
2023/10/21 01:11:33;;;;;;;2.90;2.47;;;;;;;12.87;79.06;94366.53;5034135;28;20053;-77
2023/10/21 01:14:02;;;;;;;3.08;2.75;;;;;;;12.89;80.13;94368.91;5034296;28;20056;-77
2023/10/21 01:16:30;;;;;;;3.20;2.30;;;;;;;12.89;79.15;94374.13;5034171;28;20075;-78
2023/10/21 01:18:58;;;;;;;2.72;2.53;;;;;;;12.90;80.68;94386.16;5034360;28;20057;-77
2023/10/21 01:21:27;;;;;;;2.38;2.15;;;;;;;12.87;79.93;94386.69;5034391;28;20053;-77
2023/10/21 01:23:56;;;;;;;2.60;2.40;;;;;;;12.86;80.42;94383.28;5034127;28;20049;-77
2023/10/21 01:26:24;;;;;;;3.08;2.10;;;;;;;12.86;79.51;94387.72;5045360;28;20057;-77
2023/10/21 01:28:51;;;;;;;2.40;2.17;;;;;;;12.86;79.78;94398.97;5034359;28;20060;-77
2023/10/21 01:31:19;;;;;;;3.53;2.08;;;;;;;12.88;79.07;94398.69;5033991;28;20080;-77
2023/10/21 01:33:47;;;;;;;4.28;2.22;;;;;;;12.87;79.72;94411.00;5033715;28;20547;-77
2023/10/21 01:36:15;;;;;;;3.45;2.40;;;;;;;12.91;79.90;94413.91;5033648;28;20136;-77
2023/10/21 01:38:42;;;;;;;4.40;2.50;;;;;;;12.93;79.51;94422.31;5033685;28;20112;-78
2023/10/21 01:41:11;;;;;;;3.70;2.92;;;;;;;12.94;79.14;94434.34;5033906;28;20140;-78
2023/10/21 01:43:39;;;;;;;3.03;2.70;;;;;;;12.95;78.15;94431.50;5033785;28;20139;-77
2023/10/21 01:46:07;;;;;;;3.03;2.50;;;;;;;12.96;78.18;94433.06;5033660;28;20053;-77
2023/10/21 01:48:35;;;;;;;2.85;2.28;;;;;;;12.96;78.54;94427.03;5033647;28;20046;-77
2023/10/21 01:51:04;;;;;;;4.75;2.75;;;;;;;12.97;78.18;94433.88;5033901;28;20049;-77
2023/10/21 01:53:32;;;;;;;4.82;3.20;;;;;;;12.98;79.94;94424.97;5033334;28;20064;-77
2023/10/21 01:56:01;;;;;;;3.17;2.35;;;;;;;12.97;79.08;94424.19;5033257;28;20482;-77
2023/10/21 01:58:30;;;;;;;2.85;2.40;;;;;;;12.96;79.68;94422.59;5033126;28;20053;-77
2023/10/21 02:00:57;;;;;;;2.22;1.88;;;;;;;12.95;79.40;94418.41;5033363;28;20485;-77
2023/10/21 02:03:25;;;;;;;3.15;2.25;;;;;;;12.94;79.91;94424.69;5033306;28;20103;-77
2023/10/21 02:05:53;;;;;;;2.90;1.98;;;;;;;12.93;79.17;94422.31;5033086;28;20525;-77
2023/10/21 02:08:21;;;;;;;3.50;1.80;;;;;;;12.91;78.93;94427.78;5033582;28;20088;-77
2023/10/21 02:10:48;;;;;;;1.63;1.52;;;;;;;12.91;79.88;94440.88;5033498;28;20107;-77
2023/10/21 02:13:16;;;;;;;3.13;1.42;;;;;;;12.91;79.62;94443.47;5033229;28;20158;-77
2023/10/21 02:15:45;;;;;;;2.45;1.45;;;;;;;12.90;78.69;94438.50;5032878;28;20480;-77
2023/10/21 02:18:12;;;;;;;3.45;1.90;;;;;;;12.88;78.49;94440.56;5033245;28;20046;-77
2023/10/21 02:20:40;;;;;;;2.78;1.50;;;;;;;12.87;77.75;94439.00;5033182;28;20429;-77
2023/10/21 02:23:08;;;;;;;2.38;1.42;;;;;;;12.85;77.77;94443.69;5032912;28;20053;-78
2023/10/21 02:25:35;;;;;;;1.35;1.20;;;;;;;12.85;77.76;94447.09;5032926;28;20571;-77
2023/10/21 02:28:04;;;;;;;1.80;1.38;;;;;;;12.83;77.99;94457.00;5033165;28;20485;-77
2023/10/21 02:30:31;;;;;;;1.30;1.20;;;;;;;12.83;77.66;94474.53;5033215;28;20136;-77
2023/10/21 02:33:00;;;;;;;2.13;1.23;;;;;;;12.83;77.82;94485.78;5032857;28;20531;-77
2023/10/21 02:35:33;;;;;;;2.10;1.70;;;;;;;12.83;77.25;94496.25;5032552;28;20077;-77
2023/10/21 02:38:00;;;;;;;5.75;1.73;;;;;;;12.84;77.71;94497.84;5032927;28;20060;-78
2023/10/21 02:40:28;;;;;;;1.40;0.98;;;;;;;12.87;78.44;94501.81;5032904;28;20080;-77
2023/10/21 02:42:56;;;;;;;1.13;0.98;;;;;;;12.87;78.33;94502.59;5032830;28;20081;-77
2023/10/21 02:45:24;;;;;;;2.17;0.90;;;;;;;12.89;77.46;94507.56;5032499;28;20041;-77
2023/10/21 02:47:51;;;;;;;1.27;0.60;;;;;;;12.89;77.70;94508.34;5035938;28;20049;-78
2023/10/21 02:50:20;;;;;;;0.52;0.52;;;;;;;12.91;77.55;94515.97;5051705;28;20055;-78
2023/10/21 02:52:49;;;;;;;0.35;0.35;;;;;;;12.92;77.93;94514.91;5049401;28;20053;-78
2023/10/21 02:55:18;;;;;;;1.15;0.22;;;;;;;12.94;77.61;94523.31;5032542;28;20053;-77
2023/10/21 02:57:46;;;;;;;0.38;0.38;;;;;;;12.93;76.70;94517.31;5032457;28;20073;-78
2023/10/21 03:00:16;;;;;;;0.73;0.40;;;;;;;12.95;77.14;94519.69;5032487;28;20081;-77
2023/10/21 03:02:44;;;;;;;0.68;0.50;;;;;;;12.96;77.43;94521.25;5032417;28;20057;-77
2023/10/21 03:05:12;;;;;;;0.30;0.20;;;;;;;12.95;76.78;94520.47;5032282;28;20084;-77
2023/10/21 03:07:42;;;;;;;0.73;0.50;;;;;;;12.96;78.26;94527.25;5032271;28;20137;-77
2023/10/21 03:10:10;;;;;;;0.40;0.30;;;;;;;12.96;78.14;94522.03;5032250;28;20049;-77
2023/10/21 03:12:38;;;;;;;0.40;0.40;;;;;;;12.97;77.39;94528.84;5032357;28;20049;-77
2023/10/21 03:15:08;;;;;;;0.60;0.32;;;;;;;12.97;76.46;94535.94;5031605;28;20057;-77
2023/10/21 03:17:36;;;;;;;0.30;0.20;;;;;;;12.96;76.00;94535.09;5032342;28;20056;-77
2023/10/21 03:20:06;;;;;;;0.25;0.10;;;;;;;12.98;78.11;94534.88;5032517;28;20140;-77
2023/10/21 03:22:33;;;;;;;0.47;0.10;;;;;;;12.98;76.93;94540.09;5032422;28;20148;-77
2023/10/21 03:25:05;;;;;;;0.35;0.22;;;;;;;12.98;77.93;94546.13;5031803;28;20060;-77
2023/10/21 03:27:33;;;;;;;0.25;0.25;;;;;;;12.99;76.72;94557.41;5031818;28;20053;-77
2023/10/21 03:30:00;;;;;;;0.28;0.10;;;;;;;13.00;75.77;94551.13;5032320;28;20049;-77
2023/10/21 03:32:28;;;;;;;0.45;0.20;;;;;;;13.04;77.34;94559.28;5032128;28;20447;-77
2023/10/21 03:34:55;;;;;;;0.73;0.30;;;;;;;13.07;76.89;94567.41;5031581;28;20562;-77
2023/10/21 03:37:23;;;;;;;0.10;0.10;;;;;;;13.10;75.73;94568.78;5036517;28;20136;-77
2023/10/21 03:39:51;;;;;;;0.68;0.10;;;;;;;13.13;75.81;94579.50;5040314;28;20105;-77
2023/10/21 03:42:20;;;;;;;0.70;0.17;;;;;;;13.15;74.40;94587.13;5031935;28;20059;-77
2023/10/21 03:44:49;;;;;;;0.20;0.20;;;;;;;13.17;73.50;94585.84;5031999;28;20501;-77
2023/10/21 03:47:17;;;;;;;0.35;0.10;;;;;;;13.23;74.28;94583.25;5032122;28;20045;-77
2023/10/21 03:49:44;;;;;;;0.55;0.10;;;;;;;13.26;73.59;94588.03;5031799;28;20054;-77
2023/10/21 03:52:12;;;;;;;1.60;0.30;;;;;;;13.29;73.09;94598.81;5031942;28;20052;-77
2023/10/21 03:54:39;;;;;;;0.30;0.13;;;;;;;13.31;72.29;94590.72;5031640;28;20056;-78
2023/10/21 03:57:07;;;;;;;0.25;0.00;;;;;;;13.35;72.30;94597.03;5031815;28;20050;-77
2023/10/21 03:59:37;;;;;;;0.10;0.10;;;;;;;13.37;73.81;94600.19;5031925;28;20428;-77
2023/10/21 04:02:05;;;;;;;1.52;0.00;;;;;;;13.41;72.63;94603.13;5039696;28;20068;-78
2023/10/21 04:04:33;;;;;;;0.55;0.10;;;;;;;13.44;72.84;94610.47;5044023;28;20071;-78
2023/10/21 04:07:01;;;;;;;0.17;0.10;;;;;;;13.47;72.24;94623.88;5045438;28;20452;-77
2023/10/21 04:09:29;;;;;;;1.27;0.20;;;;;;;13.52;74.05;94618.66;5032581;28;20041;-77
2023/10/21 04:11:56;;;;;;;0.10;0.10;;;;;;;13.57;75.38;94631.81;5031792;28;20055;-77
2023/10/21 04:14:24;;;;;;;0.20;0.20;;;;;;;13.57;73.79;94631.81;5031862;28;20088;-78
2023/10/21 04:16:53;;;;;;;0.38;0.28;;;;;;;13.58;73.83;94630.78;5032064;28;20297;-78
2023/10/21 04:19:20;;;;;;;0.20;0.20;;;;;;;13.58;72.36;94630.00;5031741;28;20045;-78
2023/10/21 04:21:48;;;;;;;0.57;0.52;;;;;;;13.58;73.71;94630.00;5031508;28;20056;-78
2023/10/21 04:24:16;;;;;;;0.60;0.38;;;;;;;13.59;73.06;94640.22;5031791;28;20140;-78
2023/10/21 04:26:43;;;;;;;0.30;0.30;;;;;;;13.62;74.35;94638.91;5034286;28;20111;-78
2023/10/21 04:29:12;;;;;;;0.80;0.20;;;;;;;13.62;73.12;94649.41;5035266;28;20046;-77
2023/10/21 04:31:39;;;;;;;0.32;0.10;;;;;;;13.64;73.50;94651.78;5035161;28;20053;-78
2023/10/21 04:34:08;;;;;;;0.25;0.25;;;;;;;13.63;72.24;94656.22;5034804;28;20133;-77
2023/10/21 04:36:36;;;;;;;0.35;0.20;;;;;;;13.67;73.12;94656.53;5035228;28;20336;-77
2023/10/21 04:39:03;;;;;;;0.82;0.40;;;;;;;13.68;73.65;94660.72;5035191;28;20128;-77
2023/10/21 04:41:31;;;;;;;0.20;0.20;;;;;;;13.69;74.09;94662.31;5034927;28;20053;-78
2023/10/21 04:43:59;;;;;;;0.38;0.22;;;;;;;13.70;73.66;94666.50;5034711;28;20587;-78
2023/10/21 04:46:26;;;;;;;1.60;0.40;;;;;;;13.67;72.39;94662.56;5034693;28;20420;-78
2023/10/21 04:48:54;;;;;;;0.28;0.28;;;;;;;13.66;72.64;94668.81;5034746;28;20049;-77
2023/10/21 04:51:23;;;;;;;0.20;0.20;;;;;;;13.67;75.40;94678.28;5035044;28;20084;-78
2023/10/21 04:53:51;;;;;;;0.40;0.20;;;;;;;13.67;75.58;94672.25;5034827;28;20045;-77
2023/10/21 04:56:19;;;;;;;0.50;0.32;;;;;;;13.65;73.13;94685.59;5034644;28;20136;-77
2023/10/21 04:58:46;;;;;;;1.77;0.80;;;;;;;13.62;72.42;94696.56;5034672;28;20048;-77
2023/10/21 05:01:16;;;;;;;0.77;0.38;;;;;;;13.60;72.43;94704.69;5034537;28;20398;-77
2023/10/21 05:03:44;;;;;;;0.70;0.50;;;;;;;13.59;71.48;94704.91;5034536;28;20080;-77
2023/10/21 05:06:12;;;;;;;1.52;0.30;;;;;;;13.57;71.74;94713.00;5034467;28;20056;-77
2023/10/21 05:08:41;;;;;;;0.85;0.43;;;;;;;13.57;71.70;94720.88;5034465;28;20056;-78
2023/10/21 05:11:08;;;;;;;1.95;0.70;;;;;;;13.56;71.26;94721.91;5034501;28;20107;-77
2023/10/21 05:13:36;;;;;;;2.45;0.70;;;;;;;13.54;70.93;94726.63;5034159;28;20045;-78
2023/10/21 05:16:04;;;;;;;1.90;0.98;;;;;;;13.51;70.67;94731.53;5034205;28;20061;-78
2023/10/21 05:18:31;;;;;;;2.42;0.60;;;;;;;13.50;70.69;94745.69;5034707;28;20577;-77
2023/10/21 05:20:59;;;;;;;1.35;0.80;;;;;;;13.46;70.40;94750.63;5034738;28;20056;-77
2023/10/21 05:23:27;;;;;;;2.60;0.88;;;;;;;13.44;70.40;94752.69;5034217;28;20081;-77
2023/10/21 05:25:55;;;;;;;0.70;0.50;;;;;;;13.39;70.45;94761.28;5034053;28;20049;-77
2023/10/21 05:28:23;;;;;;;3.40;0.60;;;;;;;13.34;70.78;94765.69;5033900;28;20505;-77
2023/10/21 05:30:51;;;;;;;0.68;0.52;;;;;;;13.29;71.03;94763.75;5034982;28;20053;-78
2023/10/21 05:33:18;;;;;;;0.47;0.40;;;;;;;13.25;71.49;94764.47;5034146;28;20046;-77
2023/10/21 05:35:47;;;;;;;0.68;0.47;;;;;;;13.19;71.49;94769.66;5033534;28;20108;-77
2023/10/21 05:38:14;;;;;;;2.05;0.70;;;;;;;13.12;71.94;94776.13;5033925;28;20049;-78
2023/10/21 05:40:43;;;;;;;1.50;0.57;;;;;;;13.03;72.57;94793.25;5033827;28;20053;-78
2023/10/21 05:43:12;;;;;;;0.93;0.93;;;;;;;12.98;73.95;94809.66;5033664;28;20527;-77
2023/10/21 05:45:39;;;;;;;1.95;0.82;;;;;;;12.92;73.76;94808.00;5033080;28;20049;-77
2023/10/21 05:48:07;;;;;;;1.38;0.90;;;;;;;12.87;74.32;94821.03;5017198;28;20041;-77
2023/10/21 05:50:35;;;;;;;2.47;0.80;;;;;;;12.83;74.38;94819.91;5036477;28;20041;-78
2023/10/21 05:53:03;;;;;;;2.00;0.70;;;;;;;12.78;74.82;94826.66;5017350;28;20056;-77
2023/10/21 05:55:31;;;;;;;1.90;0.77;;;;;;;12.76;74.88;94825.31;5012863;28;20053;-77
2023/10/21 05:57:58;;;;;;;1.30;0.65;;;;;;;12.74;74.96;94822.94;5012147;28;20053;-76
2023/10/21 06:00:28;;;;;;;1.60;0.70;;;;;;;12.74;75.94;94828.16;5012828;28;20469;-77
2023/10/21 06:02:55;;;;;;;1.60;0.90;;;;;;;12.75;75.21;94823.75;5016713;28;20046;-77
2023/10/21 06:05:23;;;;;;;0.75;0.75;;;;;;;12.75;75.46;94835.00;5049037;28;20080;-77
2023/10/21 06:07:51;;;;;;;1.90;0.90;;;;;;;12.76;75.19;94830.53;5050755;28;20149;-77
2023/10/21 06:10:20;;;;;;;1.25;0.95;;;;;;;12.77;75.12;94838.16;5035161;28;20053;-77
2023/10/21 06:12:47;;;;;;;1.35;0.82;;;;;;;12.80;74.88;94841.34;5033537;28;20140;-76
2023/10/21 06:15:16;;;;;;;1.10;0.70;;;;;;;12.82;74.63;94844.50;5032766;28;20049;-77
2023/10/21 06:17:46;;;;;;;1.73;0.90;;;;;;;12.83;74.72;94848.69;5033691;28;20038;-77
2023/10/21 06:20:13;;;;;;;0.75;0.75;;;;;;;12.85;74.64;94862.34;5032858;28;20057;-77
2023/10/21 06:22:41;;;;;;;1.73;0.75;;;;;;;12.84;74.71;94864.16;5033239;28;20132;-77
2023/10/21 06:25:10;;;;;;;1.70;1.02;;;;;;;12.85;74.77;94870.19;5032860;28;20120;-77
2023/10/21 06:27:38;;;;;;;0.95;0.85;;;;;;;12.89;74.71;94871.31;5033097;28;20089;-77
2023/10/21 06:30:06;;;;;;;2.05;1.17;;;;;;;12.90;74.73;94878.09;5032611;28;20049;-77
2023/10/21 06:32:34;;;;;;;1.05;0.80;;;;;;;12.93;74.73;94888.13;5013209;28;20056;-77
2023/10/21 06:35:03;;;;;;;1.15;0.93;;;;;;;12.94;74.82;94895.75;5017984;28;20049;-78
2023/10/21 06:37:32;;;;;;;1.33;0.77;;;;;;;13.01;74.84;94898.19;5032715;28;20077;-78
2023/10/21 06:39:59;;;;;;;1.77;1.00;;;;;;;13.05;74.64;94901.91;5033014;28;20432;-77
2023/10/21 06:42:27;;;;;;;1.10;0.75;;;;;;;13.08;74.49;94911.91;5032968;28;20080;-77
2023/10/21 06:44:55;;;;;;;1.88;0.98;;;;;;;13.11;74.28;94911.41;5032220;28;20041;-76
2023/10/21 06:47:22;;;;;;;3.28;1.25;;;;;;;13.16;74.13;94921.16;5032943;28;20045;-77
2023/10/21 06:49:50;;;;;;;1.33;0.75;;;;;;;13.17;73.78;94915.72;5032100;28;20115;-78
2023/10/21 06:52:20;;;;;;;1.52;0.90;;;;;;;13.18;73.76;94916.50;5032407;28;20559;-77
2023/10/21 06:54:47;;;;;;;1.00;0.93;;;;;;;13.16;73.63;94919.38;5031723;28;20061;-77
2023/10/21 06:57:20;;;;;;;2.97;0.88;;;;;;;13.15;73.73;94922.22;5032728;28;20136;-77
2023/10/21 06:59:48;;;;;;;6.85;1.98;;;;;;;13.16;73.79;94932.47;5032032;28;20052;-77
2023/10/21 07:02:17;;;;;;;2.50;0.90;;;;;;;13.18;73.57;94948.72;5032109;28;20089;-77
2023/10/21 07:04:44;;;;;;;3.53;2.05;;;;;;;13.22;73.13;94943.00;5031576;28;20047;-77
2023/10/21 07:07:12;;;;;;;0.82;0.47;;;;;;;13.26;73.46;94944.13;5032559;28;20045;-79
2023/10/21 07:09:42;;;;;;;3.78;0.85;;;;;;;13.31;73.14;94952.84;5031956;28;20045;-76
2023/10/21 07:12:11;;;;;;;3.30;1.58;;;;;;;13.36;72.92;94957.41;5032272;28;20428;-77
2023/10/21 07:14:39;;;;;;;1.55;1.08;;;;;;;13.38;72.90;94958.75;5031356;28;20060;-77
2023/10/21 07:17:08;;;;;;;1.00;0.90;;;;;;;13.41;72.71;94970.56;5031781;28;20049;-77
2023/10/21 07:19:35;;;;;;;2.28;1.38;;;;;;;13.44;72.75;94967.44;5032357;28;20057;-77
2023/10/21 07:22:04;;;;;;;1.90;0.98;;;;;;;13.47;72.43;94977.47;5032531;28;20132;-77
2023/10/21 07:24:32;;;;;;;2.90;1.58;;;;;;;13.56;72.59;94983.09;5031954;28;20081;-77
2023/10/21 07:27:01;;;;;;;3.25;1.98;;;;;;;13.69;72.86;94989.84;5031535;28;20080;-77
2023/10/21 07:29:29;;;;;;;7.00;2.30;;;;;;;13.89;72.44;94990.09;5031275;28;20110;-77
2023/10/21 07:31:57;;;;;;;3.88;1.80;;;;;;;14.12;72.06;94993.53;5032871;28;20058;-79
2023/10/21 07:37:27;;;;;;;2.85;1.40;;;;;;;14.60;70.73;94999.91;5033654;28;20049;-79
2023/10/21 07:47:14;;;;;;;1.92;1.27;;;;;;;15.69;67.65;95028.72;5031231;28;20060;-79
2023/10/21 07:49:55;;;;;;;1.95;0.93;;;;;;;15.99;66.81;95042.09;5034154;28;20057;-80
2023/10/21 07:52:24;;;;;;;2.53;1.65;;;;;;;16.15;65.85;95035.09;5033721;28;20045;-80
2023/10/21 07:54:54;;;;;;;2.58;1.35;;;;;;;16.14;65.36;95043.25;5019902;28;20050;-80
2023/10/21 07:57:22;;;;;;;2.92;0.80;;;;;;;16.11;65.71;95049.00;5013316;28;20054;-80
2023/10/21 07:59:51;;;;;;;0.60;0.50;;;;;;;16.08;66.30;95045.06;5032452;28;20547;-79
2023/10/21 08:02:22;;;;;;;1.23;0.60;;;;;;;16.09;68.23;95051.09;5037568;28;20050;-80
2023/10/21 08:04:50;;;;;;;1.75;0.80;;;;;;;16.06;66.51;95058.44;5041311;28;20053;-80
2023/10/21 08:07:17;;;;;;;1.90;0.40;;;;;;;16.05;66.57;95059.50;5053236;28;20056;-79
2023/10/21 08:09:45;;;;;;;0.32;0.10;;;;;;;16.05;65.22;95056.09;5054246;28;20049;-80
2023/10/21 08:12:13;;;;;;;2.75;0.20;;;;;;;16.12;65.50;95058.50;5042490;28;20065;-79
2023/10/21 08:14:41;;;;;;;0.57;0.15;;;;;;;16.22;64.55;95066.44;5036106;28;20042;-80
2023/10/21 08:17:09;;;;;;;5.90;4.05;;;;;;;16.32;66.24;95076.22;5035797;28;20049;-78
2023/10/21 08:19:38;;;;;;;11.80;7.70;;;;;;;16.44;65.68;95069.72;5045552;28;20073;-78
2023/10/21 08:22:06;;;;;;;4.60;2.78;;;;;;;16.56;63.01;95079.25;5041162;28;20103;-79
2023/10/21 08:24:34;;;;;;;20.13;12.50;;;;;;;16.68;63.61;95080.63;5031812;28;20497;-79
2023/10/21 08:27:02;;;;;;;125.85;83.63;;;;;;;16.76;63.20;95084.59;5036059;28;20049;-79
2023/10/21 08:29:30;;;;;;;18.17;11.90;;;;;;;16.84;62.78;95084.13;5035775;28;20049;-78
2023/10/21 08:31:58;;;;;;;2.13;1.27;;;;;;;16.93;62.16;95088.91;5035833;28;20050;-79
2023/10/21 08:34:25;;;;;;;0.40;0.40;;;;;;;17.47;61.57;95101.66;5036809;28;20491;-80
2023/10/21 08:36:54;;;;;;;3.05;1.98;;;;;;;18.12;57.85;95102.75;5035569;28;20059;-77
2023/10/21 08:39:22;;;;;;;3.92;0.65;;;;;;;19.05;55.80;95111.25;5035399;28;20055;-77
2023/10/21 08:41:51;;;;;;;1.80;0.98;;;;;;;20.00;56.24;95100.59;5039142;28;20053;-79
2023/10/21 08:44:20;;;;;;;0.70;0.20;;;;;;;20.77;53.20;95111.25;5043214;28;20049;-79
2023/10/21 08:46:49;;;;;;;2.30;0.40;;;;;;;21.74;48.29;95117.97;5043432;28;20119;-79
2023/10/21 08:49:20;;;;;;;1.17;0.30;;;;;;;22.95;45.72;95125.97;5045327;28;20087;-80
2023/10/21 08:51:50;;;;;;;5.30;2.78;;;;;;;23.81;43.30;95130.59;5028337;28;20049;-81
2023/10/21 08:54:20;;;;;;;40.30;27.83;;;;;;;23.59;43.61;95130.53;5043334;28;20052;-78
2023/10/21 08:56:49;;;;;;;9.03;5.37;;;;;;;23.20;45.08;95139.91;5038217;28;20045;-80
2023/10/21 08:59:16;;;;;;;1.70;0.80;;;;;;;23.27;46.68;95137.63;5044143;28;20089;-77
2023/10/21 09:01:45;;;;;;;0.65;0.10;;;;;;;23.58;43.47;95136.97;5033551;28;20053;-77
2023/10/21 09:04:20;;;;;;;1.27;0.08;;;;;;;23.80;43.01;95139.66;5033862;28;20049;-78
2023/10/21 09:06:55;;;;;;;0.45;0.08;;;;;;;23.80;41.70;95152.97;5035129;28;20057;-77
2023/10/21 09:09:27;;;;;;;0.85;0.20;;;;;;;23.63;43.08;95150.16;5033367;28;20053;-76
2023/10/21 09:12:09;;;;;;;1.60;0.05;;;;;;;23.27;44.64;95164.22;5033190;28;20073;-76
2023/10/21 09:14:55;;;;;;;6.03;3.08;;;;;;;22.89;44.90;95169.69;5033419;28;20061;-76
2023/10/21 09:17:34;;;;;;;8.18;5.28;;;;;;;22.61;44.57;95164.38;5040057;28;20145;-77
2023/10/21 09:20:06;;;;;;;0.57;0.38;;;;;;;22.35;44.03;95160.59;5046866;28;20049;-78
2023/10/21 09:22:35;;;;;;;0.65;0.20;;;;;;;22.10;44.73;95154.56;5055615;28;20046;-78
2023/10/21 09:25:16;;;;;;;2.72;0.15;;;;;;;21.88;45.92;95163.13;5045533;28;20467;-77
2023/10/21 09:27:44;;;;;;;0.32;0.10;;;;;;;22.05;45.29;95162.63;5061915;28;20084;-78
2023/10/21 09:30:16;;;;;;;0.20;0.13;;;;;;;22.49;44.79;95163.25;5048712;28;20132;-79
2023/10/21 09:32:46;;;;;;;8.60;6.25;;;;;;;22.87;43.70;95176.41;5040262;28;20552;-78
2023/10/21 09:35:16;;;;;;;20.52;14.65;;;;;;;23.27;44.01;95168.75;5041403;28;20045;-78
2023/10/21 09:37:43;;;;;;;18.73;13.25;;;;;;;23.88;41.46;95174.66;5037550;28;20049;-78
2023/10/21 09:40:12;;;;;;;6.72;5.55;;;;;;;24.25;41.34;95161.00;5039143;28;20556;-78
2023/10/21 09:42:42;;;;;;;2.97;1.80;;;;;;;25.12;39.83;95165.97;5026810;28;20053;-79
2023/10/21 09:45:11;;;;;;;0.10;0.05;;;;;;;25.85;36.68;95170.84;5015842;28;20457;-76
2023/10/21 09:47:40;;;;;;;2.67;0.30;;;;;;;25.03;39.70;95165.94;5014767;28;20077;-77
2023/10/21 09:50:12;;;;;;;2.67;0.13;;;;;;;24.20;39.03;95171.75;5014203;28;20054;-76
2023/10/21 09:52:45;;;;;;;0.10;0.00;;;;;;;23.60;38.67;95172.06;5014877;28;20074;-79
2023/10/21 09:55:14;;;;;;;0.43;0.10;;;;;;;23.23;43.07;95187.19;5014805;28;20244;-79
2023/10/21 09:57:44;;;;;;;2.00;0.20;;;;;;;22.99;41.03;95188.13;5021511;28;20117;-86
2023/10/21 10:00:19;;;;;;;0.25;0.10;;;;;;;22.99;45.10;95195.31;5024536;28;20053;-87
2023/10/21 10:02:48;;;;;;;0.15;0.10;;;;;;;23.01;43.36;95191.31;5024721;28;20121;-85
2023/10/21 10:05:17;;;;;;;1.00;0.08;;;;;;;23.03;44.62;95191.03;5023789;28;20547;-84
2023/10/21 10:08:08;;;;;;;0.70;0.25;;;;;;;23.10;44.62;95195.94;5024670;28;20077;-86
2023/10/21 10:10:39;;;;;;;0.30;0.00;;;;;;;23.17;43.11;95197.13;5033727;28;20061;-86
2023/10/21 10:13:12;;;;;;;1.80;0.10;;;;;;;23.31;44.39;95202.44;5041638;28;20045;-86
2023/10/21 10:15:44;;;;;;;0.88;0.35;;;;;;;23.33;43.80;95200.28;5048337;28;20476;-85
2023/10/21 10:18:15;;;;;;;;;;;;;;;23.35;43.06;95208.75;5041407;28;20056;-80
2023/10/21 10:20:48;;;;;;;33.15;26.60;;;;;;;23.39;42.48;95203.63;5035494;28;19925;-81
2023/10/21 10:23:16;;;;;;;2.38;1.73;;;;;;;23.41;43.51;95207.56;5033549;28;20053;-80
2023/10/21 10:25:46;;;;;;;1.00;0.30;;;;;;;23.29;40.18;95209.94;5034572;28;20100;-79
2023/10/21 10:28:18;;;;;;;0.52;0.20;;;;;;;23.17;40.56;95206.97;5035195;28;20045;-80
2023/10/21 10:30:49;;;;;;;0.55;0.30;;;;;;;23.06;40.93;95202.94;5034683;28;20057;-78
2023/10/21 10:33:22;;;;;;;1.38;0.40;;;;;;;22.89;40.80;95216.78;5032832;28;20046;-77
2023/10/21 10:35:51;;;;;;;0.22;0.13;;;;;;;22.68;40.07;95205.72;5032258;28;20501;-79
2023/10/21 10:38:25;;;;;;;0.93;0.40;;;;;;;22.58;41.50;95210.13;5032589;28;20077;-76
2023/10/21 10:41:02;;;;;;;0.28;0.10;;;;;;;22.49;39.69;95214.53;5032320;28;20456;-78
2023/10/21 10:43:31;;;;;;;1.35;0.20;;;;;;;22.35;42.23;95211.84;5032139;28;20516;-77
2023/10/21 10:46:00;;;;;;;0.85;0.13;;;;;;;22.24;41.90;95210.44;5032330;28;20049;-77
2023/10/21 10:48:29;;;;;;;0.38;0.15;;;;;;;22.17;41.26;95200.16;5042774;28;20109;-79
2023/10/21 10:50:58;;;;;;;0.45;0.10;;;;;;;22.13;42.81;95207.13;5042368;28;20123;-79
2023/10/21 10:53:26;;;;;;;0.65;0.10;;;;;;;22.08;44.34;95199.19;5034623;28;20053;-78
2023/10/21 10:55:54;;;;;;;0.55;0.10;;;;;;;22.06;43.13;95196.03;5034187;28;20056;-79
2023/10/21 10:58:23;;;;;;;1.15;0.10;;;;;;;21.96;42.36;95201.53;5034530;28;20146;-78
2023/10/21 11:00:52;;;;;;;1.20;0.10;;;;;;;21.90;45.95;95202.69;5033874;28;20148;-78
2023/10/21 11:03:25;;;;;;;0.88;0.25;;;;;;;21.84;43.61;95193.19;5033750;28;20045;-78
2023/10/21 11:05:55;;;;;;;0.57;0.13;;;;;;;21.76;46.08;95190.13;5044777;28;20105;-87
2023/10/21 11:08:24;;;;;;;0.55;0.10;;;;;;;21.64;45.12;95184.44;5052156;28;20055;-88
2023/10/21 11:10:53;;;;;;;0.65;0.30;;;;;;;21.52;44.18;95192.84;5050891;28;20240;-88
2023/10/21 11:13:21;;;;;;;44.58;29.70;;;;;;;21.42;45.67;95194.81;5053761;28;20045;-87
2023/10/21 11:15:51;;;;;;;57.38;37.38;;;;;;;21.23;47.14;95192.91;5055350;28;20083;-85
2023/10/21 11:18:21;;;;;;;11.25;6.63;;;;;;;21.02;44.46;95191.56;5052427;28;20057;-87
2023/10/21 11:20:50;;;;;;;8.45;5.80;;;;;;;20.85;48.26;95198.09;5053719;28;20080;-87
2023/10/21 11:23:19;;;;;;;1.25;0.60;;;;;;;20.72;45.32;95196.88;5054082;28;20068;-81
2023/10/21 11:25:48;;;;;;;1.33;0.30;;;;;;;20.61;49.31;95199.94;5044513;28;20140;-81
2023/10/21 11:28:17;;;;;;;1.33;0.45;;;;;;;20.45;46.85;95207.97;5043847;28;20053;-82
2023/10/21 11:30:46;;;;;;;0.70;0.30;;;;;;;20.34;46.02;95204.63;5048491;28;20049;-84
2023/10/21 11:33:14;;;;;;;0.50;0.20;;;;;;;20.26;48.01;95209.72;5049202;28;20489;-77
2023/10/21 11:35:45;;;;;;;1.77;0.10;;;;;;;20.21;51.22;95215.06;5034627;28;20136;-77
2023/10/21 11:38:14;;;;;;;1.65;0.30;;;;;;;20.13;47.15;95209.28;5035764;28;20051;-77
2023/10/21 11:40:41;;;;;;;5.00;2.17;;;;;;;19.99;49.28;95213.63;5036198;28;20075;-76
2023/10/21 11:43:11;;;;;;;124.88;84.40;;;;;;;19.95;49.40;95223.19;5035459;28;20053;-77
2023/10/21 11:45:40;;;;;;;21.88;14.73;;;;;;;19.88;47.88;95220.06;5034998;28;20053;-77
2023/10/21 11:48:09;;;;;;;2.80;2.13;;;;;;;19.79;50.66;95225.13;5035481;28;20081;-77
2023/10/21 11:50:38;;;;;;;4.20;2.17;;;;;;;19.68;48.00;95242.09;5035701;28;20475;-77
2023/10/21 11:53:07;;;;;;;1.65;0.98;;;;;;;19.55;51.00;95248.78;5035181;28;20119;-77
2023/10/21 11:56:00;;;;;;;1.65;0.80;;;;;;;19.44;47.85;95250.66;5035084;28;20099;-77